CYET

Edson Airport

Edson, Alberta, Canada
METAR CYET 190300Z AUTO 25005KT 9SM BKN180 02/M08 A2938 RMK SLP986
Observed Flight Rules
Jan-19 @ 03:00 UTC (39 minutes ago) Visual Flight Rules
Wind Visibility Clouds
250° at 5 knots 9 miles
  • Broken at 18,000' AGL
Temperatures Readings
Current 2°C / 36°F
Dewpoint -8°C / 18°F
Humidity 48%
Altimeter 29.38" Hg
Pressure 998.6 hPa
Elevation 925
METAR CYET 190300Z AUTO 25005KT 9SM BKN180 02/M08 A2938 RMK SLP986
Observed Flight Rules
Jan-19 @ 03:00 UTC
(39 minutes ago)
VFR
Wind Visibility
250° at 5 knots 9 miles
Clouds
  • Broken at 18,000' AGL
Temperature Dewpoint
2°C / 36°F -8°C / 18°F
Humidity Altimeter Pressure
48% 29.38" Hg 998.6 hPa